Huvudsida
METAR-TAF:

METAR-TAF

Flygplatser :

Bardufoss, Norge

Bardufoss flygplats

latitud: 69-04N, longitud: 018-32E, höjd: 7 m

Aktuellt väderrapport

Denna rapport gjordes för 13 minuter sedan, klockan 03:20 UTC
Vind 7 kt från ost/sydost
Temperatur -8°C
Fuktighet 57%
Tryck 1003 hPa
Sikt 10 km eller mer

METAR: ENDU 190320Z AUTO 11007KT 9999 NCD M08/M15 Q1003 RMK WIND 1100FT 12011KT WIND 2200FT 13015KT

Tid: 04:33 (03:33 UTC)

Väderprognos

Prognos gäller från 19 kl. 00 UTC till 19 kl. 24 UTC
Vind 8 kt från ost/sydost
Sikt 10 km eller mer
Få moln på en höjd av 4000 ft
Spridda moln på en höjd av 8000 ft

TAF: ENDU 1900/1924 11008KT 9999 FEW040 SCT080

Aktuella väderrapporter och prognoser från 4000 flygplatser (METAR- och TAF-rapporter).

De tillgängliga stationerna syns som gula och röda prickar på kartan.

För musen över prickarna för att se namnen på stationerna.

Klicka sedan för att få väderrapporter och prognoser.

För att ändra kartan: Klicka på de gröna knapparna med ett svart kors på för att zooma in; den gröna knappen med ett streck på för att zooma ut; eller på de gröna pilarna för angränsande kartor.


METAR-TAF: